sensor_id;sensor_type;location;lat;lon;timestamp;P1;durP1;ratioP1;P2;durP2;ratioP2
12348;SDS011;5974;42.710;27.258;2024-02-21T00:01:22;9.87;;;7.43;;
12348;SDS011;5974;42.710;27.258;2024-02-21T00:03:49;10.23;;;8.60;;
12348;SDS011;5974;42.710;27.258;2024-02-21T00:06:15;9.10;;;8.10;;
12348;SDS011;5974;42.710;27.258;2024-02-21T00:08:42;9.83;;;7.70;;
12348;SDS011;5974;42.710;27.258;2024-02-21T00:11:09;9.60;;;8.23;;
12348;SDS011;5974;42.710;27.258;2024-02-21T00:13:36;10.50;;;8.20;;
12348;SDS011;5974;42.710;27.258;2024-02-21T00:16:04;10.60;;;8.40;;
12348;SDS011;5974;42.710;27.258;2024-02-21T00:18:31;9.97;;;8.50;;
12348;SDS011;5974;42.710;27.258;2024-02-21T00:20:58;11.13;;;8.57;;
12348;SDS011;5974;42.710;27.258;2024-02-21T00:23:26;10.23;;;8.17;;
12348;SDS011;5974;42.710;27.258;2024-02-21T00:25:53;10.33;;;7.50;;
12348;SDS011;5974;42.710;27.258;2024-02-21T00:28:20;10.67;;;8.67;;
12348;SDS011;5974;42.710;27.258;2024-02-21T00:30:47;11.00;;;8.10;;
12348;SDS011;5974;42.710;27.258;2024-02-21T00:33:16;10.93;;;8.87;;
12348;SDS011;5974;42.710;27.258;2024-02-21T00:35:43;11.77;;;8.80;;
12348;SDS011;5974;42.710;27.258;2024-02-21T00:38:10;11.17;;;8.50;;
12348;SDS011;5974;42.710;27.258;2024-02-21T00:40:36;10.67;;;8.17;;
12348;SDS011;5974;42.710;27.258;2024-02-21T00:43:03;10.57;;;8.30;;
12348;SDS011;5974;42.710;27.258;2024-02-21T00:45:30;9.70;;;8.03;;
12348;SDS011;5974;42.710;27.258;2024-02-21T00:47:57;11.60;;;8.63;;
12348;SDS011;5974;42.710;27.258;2024-02-21T00:50:25;10.80;;;8.63;;
12348;SDS011;5974;42.710;27.258;2024-02-21T00:52:51;10.10;;;7.77;;
12348;SDS011;5974;42.710;27.258;2024-02-21T00:55:18;12.80;;;8.77;;
12348;SDS011;5974;42.710;27.258;2024-02-21T00:57:45;12.50;;;8.40;;
12348;SDS011;5974;42.710;27.258;2024-02-21T01:00:12;9.83;;;7.70;;
12348;SDS011;5974;42.710;27.258;2024-02-21T01:02:39;9.77;;;7.50;;
12348;SDS011;5974;42.710;27.258;2024-02-21T01:05:06;10.30;;;7.23;;
12348;SDS011;5974;42.710;27.258;2024-02-21T01:07:35;11.43;;;8.37;;
12348;SDS011;5974;42.710;27.258;2024-02-21T01:10:02;9.20;;;7.50;;
12348;SDS011;5974;42.710;27.258;2024-02-21T01:12:28;11.03;;;7.10;;
12348;SDS011;5974;42.710;27.258;2024-02-21T01:14:55;9.30;;;7.67;;
12348;SDS011;5974;42.710;27.258;2024-02-21T01:17:22;11.53;;;7.57;;
12348;SDS011;5974;42.710;27.258;2024-02-21T01:19:49;8.77;;;7.23;;
12348;SDS011;5974;42.710;27.258;2024-02-21T01:22:15;9.50;;;7.60;;
12348;SDS011;5974;42.710;27.258;2024-02-21T01:24:44;12.73;;;8.53;;
12348;SDS011;5974;42.710;27.258;2024-02-21T01:27:11;11.80;;;7.53;;
12348;SDS011;5974;42.710;27.258;2024-02-21T01:29:37;10.73;;;7.83;;
12348;SDS011;5974;42.710;27.258;2024-02-21T01:32:04;10.60;;;7.80;;
12348;SDS011;5974;42.710;27.258;2024-02-21T01:34:31;10.40;;;7.87;;
12348;SDS011;5974;42.710;27.258;2024-02-21T01:36:58;11.30;;;8.23;;
12348;SDS011;5974;42.710;27.258;2024-02-21T01:39:29;8.40;;;7.43;;
12348;SDS011;5974;42.710;27.258;2024-02-21T01:41:57;7.70;;;6.63;;
12348;SDS011;5974;42.710;27.258;2024-02-21T01:44:24;9.50;;;7.77;;
12348;SDS011;5974;42.710;27.258;2024-02-21T01:46:51;8.30;;;6.80;;
12348;SDS011;5974;42.710;27.258;2024-02-21T01:49:19;8.60;;;7.23;;
12348;SDS011;5974;42.710;27.258;2024-02-21T01:51:46;9.10;;;7.93;;
12348;SDS011;5974;42.710;27.258;2024-02-21T01:54:14;13.27;;;8.77;;
12348;SDS011;5974;42.710;27.258;2024-02-21T01:56:41;13.07;;;9.27;;
12348;SDS011;5974;42.710;27.258;2024-02-21T01:59:10;14.73;;;9.90;;
12348;SDS011;5974;42.710;27.258;2024-02-21T02:01:39;12.03;;;8.30;;
12348;SDS011;5974;42.710;27.258;2024-02-21T02:04:07;11.60;;;8.63;;
12348;SDS011;5974;42.710;27.258;2024-02-21T02:06:34;10.47;;;8.13;;
12348;SDS011;5974;42.710;27.258;2024-02-21T02:09:01;10.50;;;8.77;;
12348;SDS011;5974;42.710;27.258;2024-02-21T02:11:28;11.00;;;8.63;;
12348;SDS011;5974;42.710;27.258;2024-02-21T02:13:55;14.77;;;9.37;;
12348;SDS011;5974;42.710;27.258;2024-02-21T02:16:23;14.33;;;9.10;;
12348;SDS011;5974;42.710;27.258;2024-02-21T02:18:49;13.97;;;9.83;;
12348;SDS011;5974;42.710;27.258;2024-02-21T02:21:20;17.30;;;10.47;;
12348;SDS011;5974;42.710;27.258;2024-02-21T02:23:53;11.83;;;9.17;;
12348;SDS011;5974;42.710;27.258;2024-02-21T02:26:20;11.50;;;8.57;;
12348;SDS011;5974;42.710;27.258;2024-02-21T02:28:46;12.03;;;8.40;;
12348;SDS011;5974;42.710;27.258;2024-02-21T02:31:14;12.93;;;8.37;;
12348;SDS011;5974;42.710;27.258;2024-02-21T02:33:42;12.17;;;8.47;;
12348;SDS011;5974;42.710;27.258;2024-02-21T02:36:09;12.37;;;9.00;;
12348;SDS011;5974;42.710;27.258;2024-02-21T02:38:36;14.63;;;9.33;;
12348;SDS011;5974;42.710;27.258;2024-02-21T02:41:04;13.47;;;9.37;;
12348;SDS011;5974;42.710;27.258;2024-02-21T02:43:31;12.07;;;8.67;;
12348;SDS011;5974;42.710;27.258;2024-02-21T02:45:58;12.13;;;8.80;;
12348;SDS011;5974;42.710;27.258;2024-02-21T02:48:25;12.37;;;9.50;;
12348;SDS011;5974;42.710;27.258;2024-02-21T02:50:51;15.07;;;9.17;;
12348;SDS011;5974;42.710;27.258;2024-02-21T02:53:18;13.63;;;8.73;;
12348;SDS011;5974;42.710;27.258;2024-02-21T02:55:45;13.80;;;9.20;;
12348;SDS011;5974;42.710;27.258;2024-02-21T02:58:13;11.80;;;9.07;;
12348;SDS011;5974;42.710;27.258;2024-02-21T03:00:40;12.90;;;9.10;;
12348;SDS011;5974;42.710;27.258;2024-02-21T03:03:06;12.37;;;9.40;;
12348;SDS011;5974;42.710;27.258;2024-02-21T03:05:33;13.10;;;9.73;;
12348;SDS011;5974;42.710;27.258;2024-02-21T03:08:00;12.53;;;9.73;;
12348;SDS011;5974;42.710;27.258;2024-02-21T03:10:27;15.13;;;10.20;;
12348;SDS011;5974;42.710;27.258;2024-02-21T03:12:54;15.07;;;10.13;;
12348;SDS011;5974;42.710;27.258;2024-02-21T03:15:22;13.90;;;10.17;;
12348;SDS011;5974;42.710;27.258;2024-02-21T03:17:49;14.30;;;10.33;;
12348;SDS011;5974;42.710;27.258;2024-02-21T03:20:16;13.00;;;9.27;;
12348;SDS011;5974;42.710;27.258;2024-02-21T03:22:44;15.73;;;10.33;;
12348;SDS011;5974;42.710;27.258;2024-02-21T03:25:11;17.20;;;11.13;;
12348;SDS011;5974;42.710;27.258;2024-02-21T03:27:40;12.27;;;9.10;;
12348;SDS011;5974;42.710;27.258;2024-02-21T03:30:07;13.00;;;9.70;;
12348;SDS011;5974;42.710;27.258;2024-02-21T03:32:35;16.30;;;10.50;;
12348;SDS011;5974;42.710;27.258;2024-02-21T03:35:04;21.73;;;11.47;;
12348;SDS011;5974;42.710;27.258;2024-02-21T03:37:31;14.07;;;10.37;;
12348;SDS011;5974;42.710;27.258;2024-02-21T03:39:58;16.23;;;11.53;;
12348;SDS011;5974;42.710;27.258;2024-02-21T03:42:24;18.97;;;12.07;;
12348;SDS011;5974;42.710;27.258;2024-02-21T03:44:54;17.67;;;12.27;;
12348;SDS011;5974;42.710;27.258;2024-02-21T03:47:21;14.97;;;11.10;;
12348;SDS011;5974;42.710;27.258;2024-02-21T03:49:49;15.30;;;10.60;;
12348;SDS011;5974;42.710;27.258;2024-02-21T03:52:16;13.33;;;10.40;;
12348;SDS011;5974;42.710;27.258;2024-02-21T03:54:42;12.07;;;10.00;;
12348;SDS011;5974;42.710;27.258;2024-02-21T03:57:09;14.03;;;11.07;;
12348;SDS011;5974;42.710;27.258;2024-02-21T03:59:36;13.77;;;10.07;;
12348;SDS011;5974;42.710;27.258;2024-02-21T04:02:04;14.80;;;10.33;;
12348;SDS011;5974;42.710;27.258;2024-02-21T04:04:33;12.27;;;9.43;;
12348;SDS011;5974;42.710;27.258;2024-02-21T04:07:01;14.60;;;10.93;;
12348;SDS011;5974;42.710;27.258;2024-02-21T04:09:31;17.03;;;10.93;;
12348;SDS011;5974;42.710;27.258;2024-02-21T04:11:58;14.10;;;9.83;;
12348;SDS011;5974;42.710;27.258;2024-02-21T04:14:25;15.23;;;10.93;;
12348;SDS011;5974;42.710;27.258;2024-02-21T04:16:51;15.37;;;10.73;;
12348;SDS011;5974;42.710;27.258;2024-02-21T04:19:18;15.53;;;10.40;;
12348;SDS011;5974;42.710;27.258;2024-02-21T04:21:45;15.63;;;10.33;;
12348;SDS011;5974;42.710;27.258;2024-02-21T04:24:13;15.13;;;10.83;;
12348;SDS011;5974;42.710;27.258;2024-02-21T04:26:40;15.77;;;10.63;;
12348;SDS011;5974;42.710;27.258;2024-02-21T04:29:07;13.60;;;9.57;;
12348;SDS011;5974;42.710;27.258;2024-02-21T04:31:33;19.17;;;10.80;;
12348;SDS011;5974;42.710;27.258;2024-02-21T04:34:00;14.40;;;10.90;;
12348;SDS011;5974;42.710;27.258;2024-02-21T04:36:28;15.80;;;11.37;;
12348;SDS011;5974;42.710;27.258;2024-02-21T04:38:54;15.63;;;11.67;;
12348;SDS011;5974;42.710;27.258;2024-02-21T04:41:22;18.17;;;12.30;;
12348;SDS011;5974;42.710;27.258;2024-02-21T04:43:49;18.57;;;11.53;;
12348;SDS011;5974;42.710;27.258;2024-02-21T04:46:16;19.20;;;12.27;;
12348;SDS011;5974;42.710;27.258;2024-02-21T04:48:42;17.27;;;11.87;;
12348;SDS011;5974;42.710;27.258;2024-02-21T04:51:11;17.90;;;12.20;;
12348;SDS011;5974;42.710;27.258;2024-02-21T04:53:38;16.90;;;11.67;;
12348;SDS011;5974;42.710;27.258;2024-02-21T04:56:05;17.10;;;11.90;;
12348;SDS011;5974;42.710;27.258;2024-02-21T04:58:33;17.70;;;12.33;;
12348;SDS011;5974;42.710;27.258;2024-02-21T05:01:04;19.37;;;12.50;;
12348;SDS011;5974;42.710;27.258;2024-02-21T05:03:30;20.97;;;12.60;;
12348;SDS011;5974;42.710;27.258;2024-02-21T05:05:58;16.70;;;12.17;;
12348;SDS011;5974;42.710;27.258;2024-02-21T05:08:25;24.00;;;19.47;;
12348;SDS011;5974;42.710;27.258;2024-02-21T05:10:52;24.07;;;19.20;;
12348;SDS011;5974;42.710;27.258;2024-02-21T05:13:18;27.57;;;20.37;;
12348;SDS011;5974;42.710;27.258;2024-02-21T05:15:47;28.20;;;20.40;;
12348;SDS011;5974;42.710;27.258;2024-02-21T05:18:13;23.37;;;18.40;;
12348;SDS011;5974;42.710;27.258;2024-02-21T05:20:40;25.33;;;17.47;;
12348;SDS011;5974;42.710;27.258;2024-02-21T05:23:07;27.20;;;19.60;;
12348;SDS011;5974;42.710;27.258;2024-02-21T05:25:34;26.53;;;16.30;;
12348;SDS011;5974;42.710;27.258;2024-02-21T05:28:00;19.43;;;13.63;;
12348;SDS011;5974;42.710;27.258;2024-02-21T05:30:28;21.40;;;13.57;;
12348;SDS011;5974;42.710;27.258;2024-02-21T05:32:56;25.33;;;14.03;;
12348;SDS011;5974;42.710;27.258;2024-02-21T05:35:25;21.27;;;13.93;;
12348;SDS011;5974;42.710;27.258;2024-02-21T05:37:53;17.83;;;12.67;;
12348;SDS011;5974;42.710;27.258;2024-02-21T05:40:19;20.97;;;14.07;;
12348;SDS011;5974;42.710;27.258;2024-02-21T05:42:46;23.13;;;15.53;;
12348;SDS011;5974;42.710;27.258;2024-02-21T05:45:13;28.87;;;13.13;;
12348;SDS011;5974;42.710;27.258;2024-02-21T05:47:40;15.50;;;12.10;;
12348;SDS011;5974;42.710;27.258;2024-02-21T05:50:09;17.13;;;12.37;;
12348;SDS011;5974;42.710;27.258;2024-02-21T05:52:36;16.50;;;12.10;;
12348;SDS011;5974;42.710;27.258;2024-02-21T05:55:03;18.10;;;12.47;;
12348;SDS011;5974;42.710;27.258;2024-02-21T05:57:30;17.90;;;12.87;;
12348;SDS011;5974;42.710;27.258;2024-02-21T05:59:57;17.70;;;12.63;;
12348;SDS011;5974;42.710;27.258;2024-02-21T06:02:24;17.23;;;13.03;;
12348;SDS011;5974;42.710;27.258;2024-02-21T06:04:50;19.60;;;14.17;;
12348;SDS011;5974;42.710;27.258;2024-02-21T06:07:19;19.20;;;13.33;;
12348;SDS011;5974;42.710;27.258;2024-02-21T06:09:45;17.93;;;12.70;;
12348;SDS011;5974;42.710;27.258;2024-02-21T06:12:12;28.60;;;23.00;;
12348;SDS011;5974;42.710;27.258;2024-02-21T06:14:39;23.60;;;13.43;;
12348;SDS011;5974;42.710;27.258;2024-02-21T06:17:05;14.03;;;11.00;;
12348;SDS011;5974;42.710;27.258;2024-02-21T06:19:32;17.20;;;12.53;;
12348;SDS011;5974;42.710;27.258;2024-02-21T06:21:59;18.13;;;11.93;;
12348;SDS011;5974;42.710;27.258;2024-02-21T06:24:27;12.53;;;10.30;;
12348;SDS011;5974;42.710;27.258;2024-02-21T06:26:54;15.07;;;11.77;;
12348;SDS011;5974;42.710;27.258;2024-02-21T06:29:21;21.33;;;18.30;;
12348;SDS011;5974;42.710;27.258;2024-02-21T06:31:47;16.10;;;13.90;;
12348;SDS011;5974;42.710;27.258;2024-02-21T06:34:14;16.93;;;12.53;;
12348;SDS011;5974;42.710;27.258;2024-02-21T06:36:42;16.23;;;14.00;;
12348;SDS011;5974;42.710;27.258;2024-02-21T06:39:08;18.73;;;14.93;;
12348;SDS011;5974;42.710;27.258;2024-02-21T06:41:37;19.83;;;14.57;;
12348;SDS011;5974;42.710;27.258;2024-02-21T06:44:05;16.53;;;13.97;;
12348;SDS011;5974;42.710;27.258;2024-02-21T06:46:32;14.10;;;12.47;;
12348;SDS011;5974;42.710;27.258;2024-02-21T06:48:59;15.33;;;12.30;;
12348;SDS011;5974;42.710;27.258;2024-02-21T06:51:27;17.23;;;13.17;;
12348;SDS011;5974;42.710;27.258;2024-02-21T06:53:54;16.43;;;13.00;;
12348;SDS011;5974;42.710;27.258;2024-02-21T06:56:23;18.80;;;15.20;;
12348;SDS011;5974;42.710;27.258;2024-02-21T06:58:55;22.93;;;18.30;;
12348;SDS011;5974;42.710;27.258;2024-02-21T07:01:22;39.97;;;24.37;;
12348;SDS011;5974;42.710;27.258;2024-02-21T07:03:48;31.63;;;21.93;;
12348;SDS011;5974;42.710;27.258;2024-02-21T07:06:15;25.50;;;19.70;;
12348;SDS011;5974;42.710;27.258;2024-02-21T07:08:42;27.53;;;19.13;;
12348;SDS011;5974;42.710;27.258;2024-02-21T07:11:09;28.67;;;21.77;;
12348;SDS011;5974;42.710;27.258;2024-02-21T07:13:37;26.03;;;19.53;;
12348;SDS011;5974;42.710;27.258;2024-02-21T07:16:05;28.37;;;19.97;;
12348;SDS011;5974;42.710;27.258;2024-02-21T07:18:32;32.07;;;21.67;;
12348;SDS011;5974;42.710;27.258;2024-02-21T07:20:59;32.63;;;24.30;;
12348;SDS011;5974;42.710;27.258;2024-02-21T07:23:26;30.43;;;20.07;;
12348;SDS011;5974;42.710;27.258;2024-02-21T07:25:52;28.60;;;19.00;;
12348;SDS011;5974;42.710;27.258;2024-02-21T07:28:19;26.23;;;20.47;;
12348;SDS011;5974;42.710;27.258;2024-02-21T07:30:46;31.20;;;23.33;;
12348;SDS011;5974;42.710;27.258;2024-02-21T07:33:14;36.03;;;22.87;;
12348;SDS011;5974;42.710;27.258;2024-02-21T07:35:41;27.50;;;21.60;;
12348;SDS011;5974;42.710;27.258;2024-02-21T07:38:10;34.90;;;23.10;;
12348;SDS011;5974;42.710;27.258;2024-02-21T07:40:37;30.70;;;22.20;;
12348;SDS011;5974;42.710;27.258;2024-02-21T07:43:04;30.87;;;23.83;;
12348;SDS011;5974;42.710;27.258;2024-02-21T07:45:31;32.63;;;25.13;;
12348;SDS011;5974;42.710;27.258;2024-02-21T07:47:57;45.93;;;34.27;;
12348;SDS011;5974;42.710;27.258;2024-02-21T07:50:26;43.07;;;29.43;;
12348;SDS011;5974;42.710;27.258;2024-02-21T07:52:52;36.87;;;27.13;;
12348;SDS011;5974;42.710;27.258;2024-02-21T07:55:19;35.27;;;23.77;;
12348;SDS011;5974;42.710;27.258;2024-02-21T07:57:46;33.57;;;24.77;;
12348;SDS011;5974;42.710;27.258;2024-02-21T08:00:13;35.27;;;26.67;;
12348;SDS011;5974;42.710;27.258;2024-02-21T08:02:44;31.83;;;24.43;;
12348;SDS011;5974;42.710;27.258;2024-02-21T08:05:11;31.83;;;24.27;;
12348;SDS011;5974;42.710;27.258;2024-02-21T08:07:39;29.67;;;22.77;;
12348;SDS011;5974;42.710;27.258;2024-02-21T08:10:07;29.60;;;25.20;;
12348;SDS011;5974;42.710;27.258;2024-02-21T08:12:34;24.33;;;20.67;;
12348;SDS011;5974;42.710;27.258;2024-02-21T08:15:02;23.53;;;18.47;;
12348;SDS011;5974;42.710;27.258;2024-02-21T08:17:30;17.87;;;14.63;;
12348;SDS011;5974;42.710;27.258;2024-02-21T08:19:57;18.53;;;14.13;;
12348;SDS011;5974;42.710;27.258;2024-02-21T08:22:25;19.80;;;14.13;;
12348;SDS011;5974;42.710;27.258;2024-02-21T08:24:53;16.67;;;13.83;;
12348;SDS011;5974;42.710;27.258;2024-02-21T08:27:19;17.50;;;14.63;;
12348;SDS011;5974;42.710;27.258;2024-02-21T08:29:46;17.83;;;13.70;;
12348;SDS011;5974;42.710;27.258;2024-02-21T08:32:13;16.30;;;13.80;;
12348;SDS011;5974;42.710;27.258;2024-02-21T08:34:40;16.47;;;14.33;;
12348;SDS011;5974;42.710;27.258;2024-02-21T08:37:06;20.67;;;16.53;;
12348;SDS011;5974;42.710;27.258;2024-02-21T08:39:35;22.83;;;14.33;;
12348;SDS011;5974;42.710;27.258;2024-02-21T08:42:04;21.10;;;14.53;;
12348;SDS011;5974;42.710;27.258;2024-02-21T08:44:31;21.17;;;15.07;;
12348;SDS011;5974;42.710;27.258;2024-02-21T08:46:57;18.20;;;14.40;;
12348;SDS011;5974;42.710;27.258;2024-02-21T08:49:25;19.33;;;14.73;;
12348;SDS011;5974;42.710;27.258;2024-02-21T08:51:53;18.87;;;15.10;;
12348;SDS011;5974;42.710;27.258;2024-02-21T08:54:20;18.37;;;14.47;;
12348;SDS011;5974;42.710;27.258;2024-02-21T08:56:47;20.20;;;13.97;;
12348;SDS011;5974;42.710;27.258;2024-02-21T08:59:15;17.23;;;13.63;;
12348;SDS011;5974;42.710;27.258;2024-02-21T09:01:41;18.27;;;14.10;;
12348;SDS011;5974;42.710;27.258;2024-02-21T09:04:08;16.27;;;14.03;;
12348;SDS011;5974;42.710;27.258;2024-02-21T09:06:35;17.90;;;14.90;;
12348;SDS011;5974;42.710;27.258;2024-02-21T09:09:04;17.73;;;15.60;;
12348;SDS011;5974;42.710;27.258;2024-02-21T09:11:33;21.10;;;15.27;;
12348;SDS011;5974;42.710;27.258;2024-02-21T09:14:00;23.97;;;17.53;;
12348;SDS011;5974;42.710;27.258;2024-02-21T09:16:30;20.43;;;15.03;;
12348;SDS011;5974;42.710;27.258;2024-02-21T09:18:57;20.97;;;15.03;;
12348;SDS011;5974;42.710;27.258;2024-02-21T09:21:41;39.13;;;17.77;;
12348;SDS011;5974;42.710;27.258;2024-02-21T09:24:08;17.03;;;13.80;;
12348;SDS011;5974;42.710;27.258;2024-02-21T09:26:35;20.00;;;16.17;;
12348;SDS011;5974;42.710;27.258;2024-02-21T09:29:01;18.87;;;14.30;;
12348;SDS011;5974;42.710;27.258;2024-02-21T09:31:29;57.87;;;26.20;;
12348;SDS011;5974;42.710;27.258;2024-02-21T09:33:57;23.30;;;16.80;;
12348;SDS011;5974;42.710;27.258;2024-02-21T09:36:23;16.23;;;13.20;;
12348;SDS011;5974;42.710;27.258;2024-02-21T09:38:50;20.67;;;15.43;;
12348;SDS011;5974;42.710;27.258;2024-02-21T09:41:18;20.40;;;15.63;;
12348;SDS011;5974;42.710;27.258;2024-02-21T09:43:49;18.33;;;15.27;;
12348;SDS011;5974;42.710;27.258;2024-02-21T09:46:18;26.10;;;19.00;;
12348;SDS011;5974;42.710;27.258;2024-02-21T09:48:53;18.30;;;14.43;;
12348;SDS011;5974;42.710;27.258;2024-02-21T09:51:30;18.00;;;14.20;;
12348;SDS011;5974;42.710;27.258;2024-02-21T09:54:00;19.87;;;14.73;;
12348;SDS011;5974;42.710;27.258;2024-02-21T09:56:29;21.43;;;15.50;;
12348;SDS011;5974;42.710;27.258;2024-02-21T09:58:56;20.10;;;14.20;;
12348;SDS011;5974;42.710;27.258;2024-02-21T10:01:24;23.90;;;15.80;;
12348;SDS011;5974;42.710;27.258;2024-02-21T10:03:50;16.97;;;14.67;;
12348;SDS011;5974;42.710;27.258;2024-02-21T10:06:19;17.70;;;13.83;;
12348;SDS011;5974;42.710;27.258;2024-02-21T10:08:51;19.37;;;14.97;;
12348;SDS011;5974;42.710;27.258;2024-02-21T10:11:21;23.13;;;13.80;;
12348;SDS011;5974;42.710;27.258;2024-02-21T10:13:49;19.90;;;14.90;;
12348;SDS011;5974;42.710;27.258;2024-02-21T10:16:16;20.77;;;14.17;;
12348;SDS011;5974;42.710;27.258;2024-02-21T10:18:43;18.70;;;13.10;;
12348;SDS011;5974;42.710;27.258;2024-02-21T10:21:11;25.03;;;14.03;;
12348;SDS011;5974;42.710;27.258;2024-02-21T10:23:44;15.20;;;13.57;;
12348;SDS011;5974;42.710;27.258;2024-02-21T10:26:11;14.83;;;13.23;;
12348;SDS011;5974;42.710;27.258;2024-02-21T10:28:38;16.40;;;14.67;;
12348;SDS011;5974;42.710;27.258;2024-02-21T10:31:08;15.87;;;13.37;;
12348;SDS011;5974;42.710;27.258;2024-02-21T10:33:36;17.40;;;14.03;;
12348;SDS011;5974;42.710;27.258;2024-02-21T10:36:07;17.07;;;13.67;;
12348;SDS011;5974;42.710;27.258;2024-02-21T10:38:35;14.20;;;12.70;;
12348;SDS011;5974;42.710;27.258;2024-02-21T10:41:03;18.40;;;13.77;;
12348;SDS011;5974;42.710;27.258;2024-02-21T10:43:31;22.10;;;15.07;;
12348;SDS011;5974;42.710;27.258;2024-02-21T10:46:05;20.17;;;15.23;;
12348;SDS011;5974;42.710;27.258;2024-02-21T10:48:33;15.03;;;12.77;;
12348;SDS011;5974;42.710;27.258;2024-02-21T10:51:09;18.70;;;15.73;;
12348;SDS011;5974;42.710;27.258;2024-02-21T10:53:45;14.13;;;12.53;;
12348;SDS011;5974;42.710;27.258;2024-02-21T10:56:26;14.20;;;12.70;;
12348;SDS011;5974;42.710;27.258;2024-02-21T10:58:56;14.47;;;12.13;;
12348;SDS011;5974;42.710;27.258;2024-02-21T11:01:23;13.60;;;11.27;;
12348;SDS011;5974;42.710;27.258;2024-02-21T11:03:52;13.83;;;11.53;;
12348;SDS011;5974;42.710;27.258;2024-02-21T11:06:20;13.10;;;11.70;;
12348;SDS011;5974;42.710;27.258;2024-02-21T11:09:00;13.27;;;11.87;;
12348;SDS011;5974;42.710;27.258;2024-02-21T11:11:27;13.87;;;11.87;;
12348;SDS011;5974;42.710;27.258;2024-02-21T11:14:03;15.20;;;12.73;;
12348;SDS011;5974;42.710;27.258;2024-02-21T11:16:34;13.63;;;12.17;;
12348;SDS011;5974;42.710;27.258;2024-02-21T11:19:05;13.60;;;12.20;;
12348;SDS011;5974;42.710;27.258;2024-02-21T11:21:33;13.43;;;11.37;;
12348;SDS011;5974;42.710;27.258;2024-02-21T11:24:02;13.13;;;11.80;;
12348;SDS011;5974;42.710;27.258;2024-02-21T11:26:29;19.17;;;12.60;;
12348;SDS011;5974;42.710;27.258;2024-02-21T11:28:57;14.63;;;12.57;;
12348;SDS011;5974;42.710;27.258;2024-02-21T11:31:24;12.77;;;11.40;;
12348;SDS011;5974;42.710;27.258;2024-02-21T11:33:52;12.93;;;11.33;;
12348;SDS011;5974;42.710;27.258;2024-02-21T11:36:23;14.07;;;11.90;;
12348;SDS011;5974;42.710;27.258;2024-02-21T11:38:51;17.57;;;11.67;;
12348;SDS011;5974;42.710;27.258;2024-02-21T11:41:19;13.50;;;11.77;;
12348;SDS011;5974;42.710;27.258;2024-02-21T11:43:47;14.00;;;11.70;;
12348;SDS011;5974;42.710;27.258;2024-02-21T11:46:15;13.90;;;11.27;;
12348;SDS011;5974;42.710;27.258;2024-02-21T11:48:42;13.67;;;11.30;;
12348;SDS011;5974;42.710;27.258;2024-02-21T11:51:09;12.47;;;11.17;;
12348;SDS011;5974;42.710;27.258;2024-02-21T11:53:36;12.93;;;11.53;;
12348;SDS011;5974;42.710;27.258;2024-02-21T11:56:03;13.73;;;12.33;;
12348;SDS011;5974;42.710;27.258;2024-02-21T11:58:32;17.20;;;13.00;;
12348;SDS011;5974;42.710;27.258;2024-02-21T12:00:59;15.77;;;12.47;;
12348;SDS011;5974;42.710;27.258;2024-02-21T12:03:28;13.80;;;12.20;;
12348;SDS011;5974;42.710;27.258;2024-02-21T12:05:54;21.67;;;13.70;;
12348;SDS011;5974;42.710;27.258;2024-02-21T12:08:23;25.13;;;20.33;;
12348;SDS011;5974;42.710;27.258;2024-02-21T12:10:50;19.33;;;14.33;;
12348;SDS011;5974;42.710;27.258;2024-02-21T12:13:17;16.27;;;12.60;;
12348;SDS011;5974;42.710;27.258;2024-02-21T12:15:50;14.53;;;12.53;;
12348;SDS011;5974;42.710;27.258;2024-02-21T12:18:16;15.83;;;12.37;;
12348;SDS011;5974;42.710;27.258;2024-02-21T12:20:43;15.03;;;13.07;;
12348;SDS011;5974;42.710;27.258;2024-02-21T12:23:11;14.43;;;12.57;;
12348;SDS011;5974;42.710;27.258;2024-02-21T12:25:38;14.47;;;12.27;;
12348;SDS011;5974;42.710;27.258;2024-02-21T12:28:05;15.67;;;12.87;;
12348;SDS011;5974;42.710;27.258;2024-02-21T12:30:32;13.20;;;11.80;;
12348;SDS011;5974;42.710;27.258;2024-02-21T12:33:01;14.43;;;11.60;;
12348;SDS011;5974;42.710;27.258;2024-02-21T12:35:29;12.70;;;11.03;;
12348;SDS011;5974;42.710;27.258;2024-02-21T12:37:58;15.70;;;12.00;;
12348;SDS011;5974;42.710;27.258;2024-02-21T12:40:24;13.43;;;11.97;;
12348;SDS011;5974;42.710;27.258;2024-02-21T12:42:57;14.40;;;11.17;;
12348;SDS011;5974;42.710;27.258;2024-02-21T12:45:24;13.90;;;11.37;;
12348;SDS011;5974;42.710;27.258;2024-02-21T12:47:51;16.93;;;13.33;;
12348;SDS011;5974;42.710;27.258;2024-02-21T12:50:19;15.90;;;12.27;;
12348;SDS011;5974;42.710;27.258;2024-02-21T12:52:47;13.70;;;11.70;;
12348;SDS011;5974;42.710;27.258;2024-02-21T12:55:14;13.20;;;11.70;;
12348;SDS011;5974;42.710;27.258;2024-02-21T12:57:42;21.40;;;18.30;;
12348;SDS011;5974;42.710;27.258;2024-02-21T13:00:09;18.17;;;13.53;;
12348;SDS011;5974;42.710;27.258;2024-02-21T13:02:36;16.47;;;12.03;;
12348;SDS011;5974;42.710;27.258;2024-02-21T13:05:03;18.43;;;15.57;;
12348;SDS011;5974;42.710;27.258;2024-02-21T13:07:33;19.97;;;13.63;;
12348;SDS011;5974;42.710;27.258;2024-02-21T13:10:00;26.53;;;15.30;;
12348;SDS011;5974;42.710;27.258;2024-02-21T13:12:28;18.23;;;14.20;;
12348;SDS011;5974;42.710;27.258;2024-02-21T13:14:55;15.43;;;13.33;;
12348;SDS011;5974;42.710;27.258;2024-02-21T13:17:22;17.13;;;14.43;;
12348;SDS011;5974;42.710;27.258;2024-02-21T13:19:50;22.83;;;15.97;;
12348;SDS011;5974;42.710;27.258;2024-02-21T13:22:16;19.50;;;14.73;;
12348;SDS011;5974;42.710;27.258;2024-02-21T13:24:46;17.63;;;13.33;;
12348;SDS011;5974;42.710;27.258;2024-02-21T13:27:13;14.40;;;11.83;;
12348;SDS011;5974;42.710;27.258;2024-02-21T13:29:40;13.53;;;11.90;;
12348;SDS011;5974;42.710;27.258;2024-02-21T13:32:06;15.70;;;13.47;;
12348;SDS011;5974;42.710;27.258;2024-02-21T13:34:33;19.57;;;14.17;;
12348;SDS011;5974;42.710;27.258;2024-02-21T13:37:00;15.50;;;12.43;;
12348;SDS011;5974;42.710;27.258;2024-02-21T13:39:27;14.30;;;12.10;;
12348;SDS011;5974;42.710;27.258;2024-02-21T13:41:55;20.13;;;16.53;;
12348;SDS011;5974;42.710;27.258;2024-02-21T13:44:23;19.20;;;12.10;;
12348;SDS011;5974;42.710;27.258;2024-02-21T13:46:50;30.53;;;20.10;;
12348;SDS011;5974;42.710;27.258;2024-02-21T13:49:17;23.27;;;17.30;;
12348;SDS011;5974;42.710;27.258;2024-02-21T13:51:43;24.97;;;18.47;;
12348;SDS011;5974;42.710;27.258;2024-02-21T13:54:10;16.20;;;13.23;;
12348;SDS011;5974;42.710;27.258;2024-02-21T13:56:39;32.97;;;23.13;;
12348;SDS011;5974;42.710;27.258;2024-02-21T13:59:08;17.30;;;14.67;;
12348;SDS011;5974;42.710;27.258;2024-02-21T14:01:34;21.10;;;16.60;;
12348;SDS011;5974;42.710;27.258;2024-02-21T14:04:02;15.03;;;11.87;;
12348;SDS011;5974;42.710;27.258;2024-02-21T14:06:30;15.17;;;12.63;;
12348;SDS011;5974;42.710;27.258;2024-02-21T14:08:57;17.43;;;13.73;;
12348;SDS011;5974;42.710;27.258;2024-02-21T14:11:23;15.90;;;13.60;;
12348;SDS011;5974;42.710;27.258;2024-02-21T14:13:50;17.77;;;14.70;;
12348;SDS011;5974;42.710;27.258;2024-02-21T14:16:18;18.33;;;13.60;;
12348;SDS011;5974;42.710;27.258;2024-02-21T14:18:45;15.93;;;12.30;;
12348;SDS011;5974;42.710;27.258;2024-02-21T14:21:11;20.73;;;14.83;;
12348;SDS011;5974;42.710;27.258;2024-02-21T14:23:38;27.97;;;17.13;;
12348;SDS011;5974;42.710;27.258;2024-02-21T14:26:05;15.63;;;13.03;;
12348;SDS011;5974;42.710;27.258;2024-02-21T14:28:32;20.53;;;14.40;;